sensor_id;sensor_type;location;lat;lon;timestamp;P1;durP1;ratioP1;P2;durP2;ratioP2
27566;SDS011;15006;48.584;9.186;2022-07-10T00:01:15;3.15;;;2.95;;
27566;SDS011;15006;48.584;9.186;2022-07-10T00:03:41;2.65;;;2.55;;
27566;SDS011;15006;48.584;9.186;2022-07-10T00:06:09;3.92;;;3.55;;
27566;SDS011;15006;48.584;9.186;2022-07-10T00:08:35;3.30;;;3.10;;
27566;SDS011;15006;48.584;9.186;2022-07-10T00:11:01;3.45;;;3.25;;
27566;SDS011;15006;48.584;9.186;2022-07-10T00:13:27;4.47;;;4.15;;
27566;SDS011;15006;48.584;9.186;2022-07-10T00:15:53;3.33;;;3.03;;
27566;SDS011;15006;48.584;9.186;2022-07-10T00:18:19;5.30;;;4.90;;
27566;SDS011;15006;48.584;9.186;2022-07-10T00:20:45;4.03;;;3.72;;
27566;SDS011;15006;48.584;9.186;2022-07-10T00:23:11;3.78;;;3.47;;
27566;SDS011;15006;48.584;9.186;2022-07-10T00:25:37;3.70;;;3.40;;
27566;SDS011;15006;48.584;9.186;2022-07-10T00:28:03;3.53;;;2.70;;
27566;SDS011;15006;48.584;9.186;2022-07-10T00:30:29;2.80;;;2.60;;
27566;SDS011;15006;48.584;9.186;2022-07-10T00:32:55;2.50;;;2.30;;
27566;SDS011;15006;48.584;9.186;2022-07-10T00:35:21;2.78;;;2.58;;
27566;SDS011;15006;48.584;9.186;2022-07-10T00:37:47;2.20;;;2.10;;
27566;SDS011;15006;48.584;9.186;2022-07-10T00:40:13;2.35;;;2.15;;
27566;SDS011;15006;48.584;9.186;2022-07-10T00:42:39;2.60;;;2.33;;
27566;SDS011;15006;48.584;9.186;2022-07-10T00:45:05;2.25;;;2.15;;
27566;SDS011;15006;48.584;9.186;2022-07-10T00:47:32;2.30;;;2.20;;
27566;SDS011;15006;48.584;9.186;2022-07-10T00:49:57;2.35;;;2.25;;
27566;SDS011;15006;48.584;9.186;2022-07-10T00:52:23;2.00;;;1.90;;
27566;SDS011;15006;48.584;9.186;2022-07-10T00:54:50;2.20;;;2.10;;
27566;SDS011;15006;48.584;9.186;2022-07-10T00:57:16;3.72;;;2.35;;
27566;SDS011;15006;48.584;9.186;2022-07-10T00:59:46;2.60;;;2.40;;
27566;SDS011;15006;48.584;9.186;2022-07-10T01:02:14;2.15;;;2.00;;
27566;SDS011;15006;48.584;9.186;2022-07-10T01:04:43;2.97;;;2.15;;
27566;SDS011;15006;48.584;9.186;2022-07-10T01:07:18;2.10;;;2.00;;
27566;SDS011;15006;48.584;9.186;2022-07-10T01:09:46;2.08;;;1.98;;
27566;SDS011;15006;48.584;9.186;2022-07-10T01:12:15;2.10;;;2.00;;
27566;SDS011;15006;48.584;9.186;2022-07-10T01:14:44;2.30;;;2.20;;
27566;SDS011;15006;48.584;9.186;2022-07-10T01:17:10;2.40;;;2.20;;
27566;SDS011;15006;48.584;9.186;2022-07-10T01:19:37;2.08;;;1.98;;
27566;SDS011;15006;48.584;9.186;2022-07-10T01:22:03;2.28;;;2.17;;
27566;SDS011;15006;48.584;9.186;2022-07-10T01:24:29;2.00;;;1.90;;
27566;SDS011;15006;48.584;9.186;2022-07-10T01:26:55;2.15;;;2.05;;
27566;SDS011;15006;48.584;9.186;2022-07-10T01:29:21;1.98;;;1.88;;
27566;SDS011;15006;48.584;9.186;2022-07-10T01:31:47;1.80;;;1.70;;
27566;SDS011;15006;48.584;9.186;2022-07-10T01:34:13;2.13;;;1.83;;
27566;SDS011;15006;48.584;9.186;2022-07-10T01:36:39;2.05;;;1.95;;
27566;SDS011;15006;48.584;9.186;2022-07-10T01:39:06;2.17;;;2.05;;
27566;SDS011;15006;48.584;9.186;2022-07-10T01:41:32;2.05;;;1.95;;
27566;SDS011;15006;48.584;9.186;2022-07-10T01:43:59;2.00;;;1.85;;
27566;SDS011;15006;48.584;9.186;2022-07-10T01:46:26;3.28;;;1.77;;
27566;SDS011;15006;48.584;9.186;2022-07-10T01:48:52;2.13;;;2.03;;
27566;SDS011;15006;48.584;9.186;2022-07-10T01:51:18;2.25;;;2.15;;
27566;SDS011;15006;48.584;9.186;2022-07-10T01:53:45;2.10;;;2.00;;
27566;SDS011;15006;48.584;9.186;2022-07-10T01:56:11;2.13;;;2.03;;
27566;SDS011;15006;48.584;9.186;2022-07-10T01:58:39;2.47;;;2.38;;
27566;SDS011;15006;48.584;9.186;2022-07-10T02:01:05;2.25;;;2.15;;
27566;SDS011;15006;48.584;9.186;2022-07-10T02:03:32;2.70;;;2.10;;
27566;SDS011;15006;48.584;9.186;2022-07-10T02:06:17;2.38;;;2.28;;
27566;SDS011;15006;48.584;9.186;2022-07-10T02:08:43;2.15;;;2.05;;
27566;SDS011;15006;48.584;9.186;2022-07-10T02:11:09;2.20;;;2.10;;
27566;SDS011;15006;48.584;9.186;2022-07-10T02:13:37;2.42;;;2.33;;
27566;SDS011;15006;48.584;9.186;2022-07-10T02:16:04;2.30;;;2.20;;
27566;SDS011;15006;48.584;9.186;2022-07-10T02:18:30;2.28;;;2.17;;
27566;SDS011;15006;48.584;9.186;2022-07-10T02:20:57;2.40;;;2.25;;
27566;SDS011;15006;48.584;9.186;2022-07-10T02:23:23;2.60;;;2.40;;
27566;SDS011;15006;48.584;9.186;2022-07-10T02:25:49;2.38;;;2.28;;
27566;SDS011;15006;48.584;9.186;2022-07-10T02:28:15;3.20;;;2.30;;
27566;SDS011;15006;48.584;9.186;2022-07-10T02:30:41;3.08;;;2.63;;
27566;SDS011;15006;48.584;9.186;2022-07-10T02:33:08;2.40;;;2.30;;
27566;SDS011;15006;48.584;9.186;2022-07-10T02:35:34;2.30;;;2.20;;
27566;SDS011;15006;48.584;9.186;2022-07-10T02:37:59;3.38;;;2.60;;
27566;SDS011;15006;48.584;9.186;2022-07-10T02:40:26;4.40;;;3.10;;
27566;SDS011;15006;48.584;9.186;2022-07-10T02:42:52;2.90;;;2.70;;
27566;SDS011;15006;48.584;9.186;2022-07-10T02:45:18;2.97;;;2.60;;
27566;SDS011;15006;48.584;9.186;2022-07-10T02:47:44;2.63;;;2.53;;
27566;SDS011;15006;48.584;9.186;2022-07-10T02:50:10;2.80;;;2.70;;
27566;SDS011;15006;48.584;9.186;2022-07-10T02:52:36;3.20;;;2.95;;
27566;SDS011;15006;48.584;9.186;2022-07-10T02:55:02;3.50;;;3.30;;
27566;SDS011;15006;48.584;9.186;2022-07-10T02:57:28;2.83;;;2.70;;
27566;SDS011;15006;48.584;9.186;2022-07-10T02:59:54;3.70;;;3.50;;
27566;SDS011;15006;48.584;9.186;2022-07-10T03:02:20;4.40;;;4.10;;
27566;SDS011;15006;48.584;9.186;2022-07-10T03:04:46;5.88;;;5.47;;
27566;SDS011;15006;48.584;9.186;2022-07-10T03:07:12;5.35;;;4.80;;
27566;SDS011;15006;48.584;9.186;2022-07-10T03:09:38;5.25;;;4.88;;
27566;SDS011;15006;48.584;9.186;2022-07-10T03:12:04;5.38;;;4.88;;
27566;SDS011;15006;48.584;9.186;2022-07-10T03:14:31;6.32;;;5.93;;
27566;SDS011;15006;48.584;9.186;2022-07-10T03:16:57;5.82;;;5.43;;
27566;SDS011;15006;48.584;9.186;2022-07-10T03:19:23;5.80;;;5.50;;
27566;SDS011;15006;48.584;9.186;2022-07-10T03:21:49;5.68;;;5.28;;
27566;SDS011;15006;48.584;9.186;2022-07-10T03:24:14;5.60;;;5.18;;
27566;SDS011;15006;48.584;9.186;2022-07-10T03:26:40;6.90;;;6.32;;
27566;SDS011;15006;48.584;9.186;2022-07-10T03:29:06;6.78;;;6.38;;
27566;SDS011;15006;48.584;9.186;2022-07-10T03:31:33;6.22;;;5.80;;
27566;SDS011;15006;48.584;9.186;2022-07-10T03:33:59;6.40;;;6.00;;
27566;SDS011;15006;48.584;9.186;2022-07-10T03:36:25;6.45;;;6.05;;
27566;SDS011;15006;48.584;9.186;2022-07-10T03:38:52;6.30;;;5.90;;
27566;SDS011;15006;48.584;9.186;2022-07-10T03:41:18;6.07;;;5.70;;
27566;SDS011;15006;48.584;9.186;2022-07-10T03:43:44;5.32;;;5.03;;
27566;SDS011;15006;48.584;9.186;2022-07-10T03:46:10;6.75;;;6.25;;
27566;SDS011;15006;48.584;9.186;2022-07-10T03:48:36;7.30;;;6.60;;
27566;SDS011;15006;48.584;9.186;2022-07-10T03:51:02;6.90;;;6.32;;
27566;SDS011;15006;48.584;9.186;2022-07-10T03:53:28;5.53;;;4.97;;
27566;SDS011;15006;48.584;9.186;2022-07-10T03:55:54;7.47;;;6.93;;
27566;SDS011;15006;48.584;9.186;2022-07-10T03:58:20;6.72;;;5.47;;
27566;SDS011;15006;48.584;9.186;2022-07-10T04:00:46;5.50;;;5.20;;
27566;SDS011;15006;48.584;9.186;2022-07-10T04:03:12;6.57;;;6.10;;
27566;SDS011;15006;48.584;9.186;2022-07-10T04:05:38;5.95;;;5.60;;
27566;SDS011;15006;48.584;9.186;2022-07-10T04:08:05;5.30;;;4.90;;
27566;SDS011;15006;48.584;9.186;2022-07-10T04:10:32;7.90;;;5.00;;
27566;SDS011;15006;48.584;9.186;2022-07-10T04:12:59;5.43;;;5.10;;
27566;SDS011;15006;48.584;9.186;2022-07-10T04:15:25;6.10;;;5.60;;
27566;SDS011;15006;48.584;9.186;2022-07-10T04:17:52;5.95;;;5.55;;
27566;SDS011;15006;48.584;9.186;2022-07-10T04:20:18;6.03;;;5.53;;
27566;SDS011;15006;48.584;9.186;2022-07-10T04:22:45;6.00;;;5.43;;
27566;SDS011;15006;48.584;9.186;2022-07-10T04:25:11;5.18;;;4.88;;
27566;SDS011;15006;48.584;9.186;2022-07-10T04:27:38;5.32;;;5.03;;
27566;SDS011;15006;48.584;9.186;2022-07-10T04:30:04;5.13;;;4.78;;
27566;SDS011;15006;48.584;9.186;2022-07-10T04:32:31;7.47;;;4.68;;
27566;SDS011;15006;48.584;9.186;2022-07-10T04:34:57;4.78;;;4.43;;
27566;SDS011;15006;48.584;9.186;2022-07-10T04:37:24;4.88;;;4.47;;
27566;SDS011;15006;48.584;9.186;2022-07-10T04:39:50;4.50;;;4.20;;
27566;SDS011;15006;48.584;9.186;2022-07-10T04:42:16;5.35;;;5.00;;
27566;SDS011;15006;48.584;9.186;2022-07-10T04:44:42;5.13;;;4.75;;
27566;SDS011;15006;48.584;9.186;2022-07-10T04:47:08;5.05;;;4.75;;
27566;SDS011;15006;48.584;9.186;2022-07-10T04:49:34;6.63;;;5.57;;
27566;SDS011;15006;48.584;9.186;2022-07-10T04:52:00;5.40;;;5.10;;
27566;SDS011;15006;48.584;9.186;2022-07-10T04:54:26;6.35;;;5.60;;
27566;SDS011;15006;48.584;9.186;2022-07-10T04:56:52;5.22;;;4.93;;
27566;SDS011;15006;48.584;9.186;2022-07-10T04:59:18;6.60;;;6.00;;
27566;SDS011;15006;48.584;9.186;2022-07-10T05:01:44;5.72;;;5.28;;
27566;SDS011;15006;48.584;9.186;2022-07-10T05:04:10;5.55;;;5.15;;
27566;SDS011;15006;48.584;9.186;2022-07-10T05:06:36;5.80;;;5.07;;
27566;SDS011;15006;48.584;9.186;2022-07-10T05:09:03;5.45;;;4.80;;
27566;SDS011;15006;48.584;9.186;2022-07-10T05:11:29;5.13;;;4.72;;
27566;SDS011;15006;48.584;9.186;2022-07-10T05:13:56;5.03;;;4.82;;
27566;SDS011;15006;48.584;9.186;2022-07-10T05:16:23;5.35;;;4.88;;
27566;SDS011;15006;48.584;9.186;2022-07-10T05:18:49;4.97;;;4.68;;
27566;SDS011;15006;48.584;9.186;2022-07-10T05:21:15;4.93;;;4.53;;
27566;SDS011;15006;48.584;9.186;2022-07-10T05:23:41;4.50;;;4.20;;
27566;SDS011;15006;48.584;9.186;2022-07-10T05:26:07;4.22;;;4.03;;
27566;SDS011;15006;48.584;9.186;2022-07-10T05:28:33;4.75;;;4.43;;
27566;SDS011;15006;48.584;9.186;2022-07-10T05:30:59;7.10;;;4.75;;
27566;SDS011;15006;48.584;9.186;2022-07-10T05:33:25;4.57;;;4.18;;
27566;SDS011;15006;48.584;9.186;2022-07-10T05:35:53;4.82;;;4.50;;
27566;SDS011;15006;48.584;9.186;2022-07-10T05:38:20;5.57;;;4.13;;
27566;SDS011;15006;48.584;9.186;2022-07-10T05:40:46;5.85;;;4.03;;
27566;SDS011;15006;48.584;9.186;2022-07-10T05:43:14;3.50;;;3.38;;
27566;SDS011;15006;48.584;9.186;2022-07-10T05:45:40;5.88;;;3.40;;
27566;SDS011;15006;48.584;9.186;2022-07-10T05:48:05;2.88;;;2.67;;
27566;SDS011;15006;48.584;9.186;2022-07-10T05:50:31;4.18;;;2.97;;
27566;SDS011;15006;48.584;9.186;2022-07-10T05:52:57;3.28;;;2.97;;
27566;SDS011;15006;48.584;9.186;2022-07-10T05:55:24;3.72;;;2.78;;
27566;SDS011;15006;48.584;9.186;2022-07-10T05:57:50;3.10;;;2.80;;
27566;SDS011;15006;48.584;9.186;2022-07-10T06:00:16;2.88;;;2.35;;
27566;SDS011;15006;48.584;9.186;2022-07-10T06:02:42;3.10;;;2.88;;
27566;SDS011;15006;48.584;9.186;2022-07-10T06:05:08;3.13;;;2.38;;
27566;SDS011;15006;48.584;9.186;2022-07-10T06:07:34;2.92;;;2.65;;
27566;SDS011;15006;48.584;9.186;2022-07-10T06:10:01;3.22;;;2.42;;
27566;SDS011;15006;48.584;9.186;2022-07-10T06:12:29;3.60;;;3.30;;
27566;SDS011;15006;48.584;9.186;2022-07-10T06:14:55;4.88;;;2.50;;
27566;SDS011;15006;48.584;9.186;2022-07-10T06:17:21;2.63;;;2.42;;
27566;SDS011;15006;48.584;9.186;2022-07-10T06:19:47;2.70;;;2.60;;
27566;SDS011;15006;48.584;9.186;2022-07-10T06:22:14;5.15;;;2.72;;
27566;SDS011;15006;48.584;9.186;2022-07-10T06:25:05;2.75;;;2.55;;
27566;SDS011;15006;48.584;9.186;2022-07-10T06:27:32;2.67;;;2.42;;
27566;SDS011;15006;48.584;9.186;2022-07-10T06:29:59;2.17;;;2.08;;
27566;SDS011;15006;48.584;9.186;2022-07-10T06:32:26;2.28;;;2.08;;
27566;SDS011;15006;48.584;9.186;2022-07-10T06:34:52;2.25;;;2.05;;
27566;SDS011;15006;48.584;9.186;2022-07-10T06:37:19;2.55;;;2.15;;
27566;SDS011;15006;48.584;9.186;2022-07-10T06:39:46;2.35;;;2.15;;
27566;SDS011;15006;48.584;9.186;2022-07-10T06:42:15;3.80;;;1.80;;
27566;SDS011;15006;48.584;9.186;2022-07-10T06:44:42;2.17;;;1.50;;
27566;SDS011;15006;48.584;9.186;2022-07-10T06:47:13;3.30;;;1.85;;
27566;SDS011;15006;48.584;9.186;2022-07-10T06:50:05;1.60;;;1.50;;
27566;SDS011;15006;48.584;9.186;2022-07-10T06:52:33;3.08;;;1.70;;
27566;SDS011;15006;48.584;9.186;2022-07-10T06:55:00;2.38;;;1.60;;
27566;SDS011;15006;48.584;9.186;2022-07-10T06:57:28;11.98;;;1.77;;
27566;SDS011;15006;48.584;9.186;2022-07-10T06:59:54;2.80;;;1.45;;
27566;SDS011;15006;48.584;9.186;2022-07-10T07:02:20;1.50;;;1.40;;
27566;SDS011;15006;48.584;9.186;2022-07-10T07:04:46;1.60;;;1.50;;
27566;SDS011;15006;48.584;9.186;2022-07-10T07:07:12;2.15;;;1.33;;
27566;SDS011;15006;48.584;9.186;2022-07-10T07:09:39;1.98;;;1.52;;
27566;SDS011;15006;48.584;9.186;2022-07-10T07:12:06;2.70;;;1.30;;
27566;SDS011;15006;48.584;9.186;2022-07-10T07:18:33;2.78;;;1.27;;
27566;SDS011;15006;48.584;9.186;2022-07-10T07:21:00;2.95;;;1.30;;
27566;SDS011;15006;48.584;9.186;2022-07-10T07:23:45;2.60;;;1.50;;
27566;SDS011;15006;48.584;9.186;2022-07-10T07:26:11;3.47;;;1.48;;
27566;SDS011;15006;48.584;9.186;2022-07-10T07:28:37;2.50;;;0.80;;
27566;SDS011;15006;48.584;9.186;2022-07-10T07:31:03;1.23;;;1.13;;
27566;SDS011;15006;48.584;9.186;2022-07-10T07:33:29;1.48;;;1.38;;
27566;SDS011;15006;48.584;9.186;2022-07-10T07:35:55;2.15;;;1.25;;
27566;SDS011;15006;48.584;9.186;2022-07-10T07:38:21;2.40;;;1.65;;
27566;SDS011;15006;48.584;9.186;2022-07-10T07:40:47;2.28;;;1.45;;
27566;SDS011;15006;48.584;9.186;2022-07-10T07:43:13;2.05;;;1.20;;
27566;SDS011;15006;48.584;9.186;2022-07-10T07:45:40;1.17;;;0.85;;
27566;SDS011;15006;48.584;9.186;2022-07-10T07:48:05;1.20;;;1.10;;
27566;SDS011;15006;48.584;9.186;2022-07-10T07:50:33;1.00;;;0.90;;
27566;SDS011;15006;48.584;9.186;2022-07-10T07:53:04;2.30;;;1.25;;
27566;SDS011;15006;48.584;9.186;2022-07-10T07:55:31;3.63;;;0.90;;
27566;SDS011;15006;48.584;9.186;2022-07-10T07:57:58;1.75;;;0.90;;
27566;SDS011;15006;48.584;9.186;2022-07-10T08:05:36;3.15;;;1.30;;
27566;SDS011;15006;48.584;9.186;2022-07-10T08:08:02;1.33;;;1.05;;
27566;SDS011;15006;48.584;9.186;2022-07-10T08:10:34;2.45;;;1.00;;
27566;SDS011;15006;48.584;9.186;2022-07-10T08:13:00;2.17;;;1.25;;
27566;SDS011;15006;48.584;9.186;2022-07-10T08:15:26;1.90;;;1.10;;
27566;SDS011;15006;48.584;9.186;2022-07-10T08:17:53;2.45;;;1.17;;
27566;SDS011;15006;48.584;9.186;2022-07-10T08:20:22;2.58;;;1.08;;
27566;SDS011;15006;48.584;9.186;2022-07-10T08:22:50;1.00;;;0.80;;
27566;SDS011;15006;48.584;9.186;2022-07-10T08:25:21;4.03;;;1.08;;
27566;SDS011;15006;48.584;9.186;2022-07-10T08:27:47;1.40;;;1.20;;
27566;SDS011;15006;48.584;9.186;2022-07-10T08:30:13;2.85;;;1.20;;
27566;SDS011;15006;48.584;9.186;2022-07-10T08:32:39;6.10;;;1.00;;
27566;SDS011;15006;48.584;9.186;2022-07-10T08:35:06;1.70;;;0.90;;
27566;SDS011;15006;48.584;9.186;2022-07-10T08:37:39;2.28;;;1.05;;
27566;SDS011;15006;48.584;9.186;2022-07-10T08:40:08;7.10;;;1.10;;
27566;SDS011;15006;48.584;9.186;2022-07-10T08:42:39;1.52;;;1.20;;
27566;SDS011;15006;48.584;9.186;2022-07-10T08:45:09;1.60;;;0.88;;
27566;SDS011;15006;48.584;9.186;2022-07-10T08:47:37;1.60;;;0.85;;
27566;SDS011;15006;48.584;9.186;2022-07-10T08:50:21;2.20;;;1.10;;
27566;SDS011;15006;48.584;9.186;2022-07-10T08:53:00;2.90;;;0.90;;
27566;SDS011;15006;48.584;9.186;2022-07-10T08:55:33;1.23;;;1.08;;
27566;SDS011;15006;48.584;9.186;2022-07-10T08:58:02;1.23;;;0.80;;
27566;SDS011;15006;48.584;9.186;2022-07-10T09:00:31;2.30;;;1.42;;
27566;SDS011;15006;48.584;9.186;2022-07-10T09:02:57;2.85;;;1.10;;
27566;SDS011;15006;48.584;9.186;2022-07-10T09:05:23;2.25;;;0.82;;
27566;SDS011;15006;48.584;9.186;2022-07-10T09:07:51;1.75;;;0.90;;
27566;SDS011;15006;48.584;9.186;2022-07-10T09:10:19;1.52;;;1.00;;
27566;SDS011;15006;48.584;9.186;2022-07-10T09:12:52;0.75;;;0.75;;
27566;SDS011;15006;48.584;9.186;2022-07-10T09:15:22;2.25;;;1.10;;
27566;SDS011;15006;48.584;9.186;2022-07-10T09:18:02;2.17;;;1.10;;
27566;SDS011;15006;48.584;9.186;2022-07-10T09:20:34;3.80;;;0.80;;
27566;SDS011;15006;48.584;9.186;2022-07-10T09:23:16;1.00;;;0.75;;
27566;SDS011;15006;48.584;9.186;2022-07-10T09:25:49;6.57;;;0.82;;
27566;SDS011;15006;48.584;9.186;2022-07-10T09:28:18;1.15;;;0.90;;
27566;SDS011;15006;48.584;9.186;2022-07-10T09:30:48;2.20;;;0.88;;
27566;SDS011;15006;48.584;9.186;2022-07-10T09:33:19;1.50;;;0.80;;
27566;SDS011;15006;48.584;9.186;2022-07-10T09:43:59;0.88;;;0.70;;
27566;SDS011;15006;48.584;9.186;2022-07-10T09:46:32;1.20;;;0.90;;
27566;SDS011;15006;48.584;9.186;2022-07-10T09:49:04;1.40;;;0.90;;
27566;SDS011;15006;48.584;9.186;2022-07-10T09:51:38;1.02;;;0.70;;
27566;SDS011;15006;48.584;9.186;2022-07-10T09:54:10;1.73;;;0.77;;
27566;SDS011;15006;48.584;9.186;2022-07-10T09:56:41;0.93;;;0.70;;
27566;SDS011;15006;48.584;9.186;2022-07-10T09:59:19;1.00;;;0.80;;
27566;SDS011;15006;48.584;9.186;2022-07-10T10:01:50;4.05;;;1.05;;
27566;SDS011;15006;48.584;9.186;2022-07-10T10:04:19;2.22;;;1.02;;
27566;SDS011;15006;48.584;9.186;2022-07-10T10:06:53;1.85;;;0.93;;
27566;SDS011;15006;48.584;9.186;2022-07-10T10:09:26;1.35;;;0.73;;
27566;SDS011;15006;48.584;9.186;2022-07-10T10:12:07;0.85;;;0.65;;
27566;SDS011;15006;48.584;9.186;2022-07-10T10:14:43;1.48;;;0.80;;
27566;SDS011;15006;48.584;9.186;2022-07-10T10:17:10;1.63;;;0.68;;
27566;SDS011;15006;48.584;9.186;2022-07-10T10:19:38;4.13;;;0.60;;
27566;SDS011;15006;48.584;9.186;2022-07-10T10:22:24;2.75;;;0.88;;
27566;SDS011;15006;48.584;9.186;2022-07-10T10:24:53;1.00;;;0.70;;
27566;SDS011;15006;48.584;9.186;2022-07-10T10:27:20;1.08;;;0.73;;
27566;SDS011;15006;48.584;9.186;2022-07-10T10:29:47;1.27;;;0.80;;
27566;SDS011;15006;48.584;9.186;2022-07-10T10:32:14;1.80;;;0.88;;
27566;SDS011;15006;48.584;9.186;2022-07-10T10:34:42;0.77;;;0.60;;
27566;SDS011;15006;48.584;9.186;2022-07-10T10:37:42;1.75;;;0.80;;
27566;SDS011;15006;48.584;9.186;2022-07-10T10:40:10;2.40;;;0.82;;
27566;SDS011;15006;48.584;9.186;2022-07-10T10:42:58;0.65;;;0.55;;
27566;SDS011;15006;48.584;9.186;2022-07-10T10:45:43;0.75;;;0.70;;
27566;SDS011;15006;48.584;9.186;2022-07-10T10:48:11;1.05;;;0.90;;
27566;SDS011;15006;48.584;9.186;2022-07-10T10:50:45;0.80;;;0.60;;
27566;SDS011;15006;48.584;9.186;2022-07-10T10:53:28;1.27;;;0.98;;
27566;SDS011;15006;48.584;9.186;2022-07-10T10:58:26;0.77;;;0.70;;
27566;SDS011;15006;48.584;9.186;2022-07-10T11:01:23;1.45;;;0.68;;
27566;SDS011;15006;48.584;9.186;2022-07-10T11:09:24;2.28;;;0.95;;
27566;SDS011;15006;48.584;9.186;2022-07-10T11:14:24;0.50;;;0.50;;
27566;SDS011;15006;48.584;9.186;2022-07-10T11:16:54;0.68;;;0.60;;
27566;SDS011;15006;48.584;9.186;2022-07-10T11:19:22;2.80;;;0.90;;
27566;SDS011;15006;48.584;9.186;2022-07-10T11:25:03;1.60;;;0.73;;
27566;SDS011;15006;48.584;9.186;2022-07-10T11:33:29;0.38;;;0.38;;
27566;SDS011;15006;48.584;9.186;2022-07-10T11:36:15;1.48;;;0.50;;
27566;SDS011;15006;48.584;9.186;2022-07-10T11:39:02;1.23;;;0.50;;
27566;SDS011;15006;48.584;9.186;2022-07-10T11:41:34;1.02;;;0.73;;
27566;SDS011;15006;48.584;9.186;2022-07-10T11:44:14;2.35;;;0.80;;
27566;SDS011;15006;48.584;9.186;2022-07-10T11:46:43;0.60;;;0.50;;
27566;SDS011;15006;48.584;9.186;2022-07-10T11:49:10;0.60;;;0.40;;
27566;SDS011;15006;48.584;9.186;2022-07-10T11:51:37;1.35;;;0.70;;
27566;SDS011;15006;48.584;9.186;2022-07-10T11:54:09;1.60;;;0.70;;
27566;SDS011;15006;48.584;9.186;2022-07-10T11:56:39;1.80;;;0.90;;
27566;SDS011;15006;48.584;9.186;2022-07-10T11:59:09;0.93;;;0.70;;
27566;SDS011;15006;48.584;9.186;2022-07-10T12:01:48;1.15;;;0.70;;
27566;SDS011;15006;48.584;9.186;2022-07-10T12:04:17;0.95;;;0.60;;
27566;SDS011;15006;48.584;9.186;2022-07-10T12:06:49;0.98;;;0.63;;
27566;SDS011;15006;48.584;9.186;2022-07-10T12:09:17;2.03;;;1.92;;
27566;SDS011;15006;48.584;9.186;2022-07-10T12:11:57;3.92;;;1.17;;
27566;SDS011;15006;48.584;9.186;2022-07-10T12:14:32;1.10;;;1.00;;
27566;SDS011;15006;48.584;9.186;2022-07-10T12:16:58;2.35;;;0.52;;
27566;SDS011;15006;48.584;9.186;2022-07-10T12:19:30;1.58;;;0.57;;
27566;SDS011;15006;48.584;9.186;2022-07-10T12:22:04;2.28;;;0.90;;
27566;SDS011;15006;48.584;9.186;2022-07-10T12:24:31;1.13;;;0.68;;
27566;SDS011;15006;48.584;9.186;2022-07-10T12:26:58;1.42;;;0.75;;
27566;SDS011;15006;48.584;9.186;2022-07-10T12:29:25;1.15;;;0.50;;
27566;SDS011;15006;48.584;9.186;2022-07-10T12:31:53;0.65;;;0.47;;
27566;SDS011;15006;48.584;9.186;2022-07-10T12:34:41;0.50;;;0.50;;
27566;SDS011;15006;48.584;9.186;2022-07-10T12:37:13;0.95;;;0.60;;
27566;SDS011;15006;48.584;9.186;2022-07-10T12:39:48;1.13;;;0.70;;
27566;SDS011;15006;48.584;9.186;2022-07-10T12:42:31;0.90;;;0.50;;
27566;SDS011;15006;48.584;9.186;2022-07-10T12:47:43;0.88;;;0.50;;
27566;SDS011;15006;48.584;9.186;2022-07-10T12:50:11;1.02;;;0.30;;
27566;SDS011;15006;48.584;9.186;2022-07-10T12:52:38;0.95;;;0.40;;
27566;SDS011;15006;48.584;9.186;2022-07-10T13:00:22;0.85;;;0.50;;
27566;SDS011;15006;48.584;9.186;2022-07-10T13:05:31;1.02;;;0.50;;
27566;SDS011;15006;48.584;9.186;2022-07-10T13:08:05;1.50;;;0.50;;
27566;SDS011;15006;48.584;9.186;2022-07-10T13:13:20;2.80;;;1.02;;
27566;SDS011;15006;48.584;9.186;2022-07-10T13:15:47;1.05;;;0.60;;
27566;SDS011;15006;48.584;9.186;2022-07-10T13:18:19;0.88;;;0.40;;
27566;SDS011;15006;48.584;9.186;2022-07-10T13:20:48;0.85;;;0.50;;
27566;SDS011;15006;48.584;9.186;2022-07-10T13:23:23;1.13;;;0.43;;
27566;SDS011;15006;48.584;9.186;2022-07-10T13:25:51;0.90;;;0.60;;
27566;SDS011;15006;48.584;9.186;2022-07-10T13:28:18;0.68;;;0.40;;
27566;SDS011;15006;48.584;9.186;2022-07-10T13:30:44;1.45;;;0.68;;
27566;SDS011;15006;48.584;9.186;2022-07-10T13:33:11;1.17;;;0.40;;
27566;SDS011;15006;48.584;9.186;2022-07-10T13:35:37;1.48;;;0.40;;
27566;SDS011;15006;48.584;9.186;2022-07-10T13:38:04;0.57;;;0.40;;
27566;SDS011;15006;48.584;9.186;2022-07-10T13:40:33;0.60;;;0.30;;
27566;SDS011;15006;48.584;9.186;2022-07-10T13:43:01;0.85;;;0.40;;
27566;SDS011;15006;48.584;9.186;2022-07-10T13:45:29;1.02;;;0.50;;
27566;SDS011;15006;48.584;9.186;2022-07-10T13:48:02;0.65;;;0.40;;
27566;SDS011;15006;48.584;9.186;2022-07-10T13:50:29;2.95;;;0.68;;
27566;SDS011;15006;48.584;9.186;2022-07-10T13:52:56;0.82;;;0.30;;
27566;SDS011;15006;48.584;9.186;2022-07-10T13:55:23;1.55;;;0.60;;
27566;SDS011;15006;48.584;9.186;2022-07-10T13:57:49;0.63;;;0.40;;
27566;SDS011;15006;48.584;9.186;2022-07-10T14:00:15;0.93;;;0.38;;
27566;SDS011;15006;48.584;9.186;2022-07-10T14:02:41;0.30;;;0.22;;
27566;SDS011;15006;48.584;9.186;2022-07-10T14:05:08;1.65;;;0.35;;
27566;SDS011;15006;48.584;9.186;2022-07-10T14:07:34;1.25;;;0.28;;
27566;SDS011;15006;48.584;9.186;2022-07-10T14:10:00;0.50;;;0.30;;
27566;SDS011;15006;48.584;9.186;2022-07-10T14:12:29;5.75;;;0.52;;
27566;SDS011;15006;48.584;9.186;2022-07-10T14:14:57;0.52;;;0.30;;
27566;SDS011;15006;48.584;9.186;2022-07-10T14:17:24;1.55;;;0.50;;
27566;SDS011;15006;48.584;9.186;2022-07-10T14:19:52;0.82;;;0.38;;
27566;SDS011;15006;48.584;9.186;2022-07-10T14:22:19;0.82;;;0.40;;
27566;SDS011;15006;48.584;9.186;2022-07-10T14:24:44;2.45;;;0.38;;
27566;SDS011;15006;48.584;9.186;2022-07-10T14:27:11;0.88;;;0.30;;
27566;SDS011;15006;48.584;9.186;2022-07-10T14:29:38;3.92;;;0.40;;
27566;SDS011;15006;48.584;9.186;2022-07-10T14:32:04;1.85;;;0.60;;
27566;SDS011;15006;48.584;9.186;2022-07-10T14:34:34;0.47;;;0.30;;
27566;SDS011;15006;48.584;9.186;2022-07-10T14:37:01;1.55;;;0.30;;
27566;SDS011;15006;48.584;9.186;2022-07-10T14:39:27;1.08;;;0.60;;
27566;SDS011;15006;48.584;9.186;2022-07-10T14:41:53;0.70;;;0.50;;
27566;SDS011;15006;48.584;9.186;2022-07-10T14:44:19;1.33;;;0.35;;
27566;SDS011;15006;48.584;9.186;2022-07-10T14:46:46;1.08;;;0.43;;
27566;SDS011;15006;48.584;9.186;2022-07-10T14:49:12;0.80;;;0.40;;
27566;SDS011;15006;48.584;9.186;2022-07-10T14:51:42;1.67;;;0.43;;
27566;SDS011;15006;48.584;9.186;2022-07-10T14:54:08;0.95;;;0.40;;
27566;SDS011;15006;48.584;9.186;2022-07-10T14:56:35;1.00;;;0.40;;
27566;SDS011;15006;48.584;9.186;2022-07-10T14:59:01;1.27;;;0.32;;
27566;SDS011;15006;48.584;9.186;2022-07-10T15:01:27;0.93;;;0.47;;
27566;SDS011;15006;48.584;9.186;2022-07-10T15:03:54;0.80;;;0.40;;
27566;SDS011;15006;48.584;9.186;2022-07-10T15:06:23;1.92;;;0.68;;
27566;SDS011;15006;48.584;9.186;2022-07-10T15:08:49;1.48;;;0.32;;
27566;SDS011;15006;48.584;9.186;2022-07-10T15:11:16;1.13;;;0.50;;
27566;SDS011;15006;48.584;9.186;2022-07-10T15:13:48;1.23;;;1.08;;
27566;SDS011;15006;48.584;9.186;2022-07-10T15:16:17;4.63;;;1.02;;
27566;SDS011;15006;48.584;9.186;2022-07-10T15:18:43;0.50;;;0.30;;
27566;SDS011;15006;48.584;9.186;2022-07-10T15:21:10;1.13;;;0.43;;
27566;SDS011;15006;48.584;9.186;2022-07-10T15:23:37;1.83;;;0.40;;
27566;SDS011;15006;48.584;9.186;2022-07-10T15:26:03;0.57;;;0.45;;
27566;SDS011;15006;48.584;9.186;2022-07-10T15:28:29;0.77;;;0.30;;
27566;SDS011;15006;48.584;9.186;2022-07-10T15:31:05;0.65;;;0.40;;
27566;SDS011;15006;48.584;9.186;2022-07-10T15:33:34;2.72;;;0.60;;
27566;SDS011;15006;48.584;9.186;2022-07-10T15:38:28;5.93;;;0.35;;
27566;SDS011;15006;48.584;9.186;2022-07-10T15:40:55;1.33;;;0.45;;
27566;SDS011;15006;48.584;9.186;2022-07-10T15:43:22;1.15;;;0.30;;
27566;SDS011;15006;48.584;9.186;2022-07-10T15:45:49;0.88;;;0.50;;
27566;SDS011;15006;48.584;9.186;2022-07-10T15:48:15;0.93;;;0.50;;